createdAt,value
2019-05-05T00:02:30.585Z,99855.15
2019-05-05T00:05:01.435Z,99858.00
2019-05-05T00:07:31.089Z,99866.32
2019-05-05T00:10:00.302Z,99871.66
2019-05-05T00:12:49.263Z,99867.98
2019-05-05T00:15:35.998Z,99869.75
2019-05-05T00:18:05.723Z,99875.73
2019-05-05T00:20:35.045Z,99877.63
2019-05-05T00:23:05.340Z,99879.55
2019-05-05T00:25:34.743Z,99888.25
2019-05-05T00:28:05.018Z,99873.50
2019-05-05T00:30:34.453Z,99890.32
2019-05-05T00:33:05.573Z,99885.79
2019-05-05T00:35:34.621Z,99887.95
2019-05-05T00:38:05.098Z,99886.05
2019-05-05T00:40:35.238Z,99889.88
2019-05-05T00:43:05.372Z,99897.68
2019-05-05T00:45:35.969Z,99908.27
2019-05-05T00:48:06.849Z,99912.61
2019-05-05T00:50:36.045Z,99913.86
2019-05-05T00:53:05.491Z,99917.41
2019-05-05T00:55:37.333Z,99913.19
2019-05-05T00:58:06.559Z,99917.89
2019-05-05T01:00:44.390Z,99918.31
2019-05-05T01:03:15.283Z,99919.55
2019-05-05T01:05:46.280Z,99927.73
2019-05-05T01:08:19.583Z,99931.75
2019-05-05T01:10:48.781Z,99933.48
2019-05-05T01:13:18.007Z,99932.72
2019-05-05T01:15:47.302Z,99938.41
2019-05-05T01:18:16.566Z,99941.75
2019-05-05T01:20:45.764Z,99949.66
2019-05-05T01:23:15.154Z,99955.20
2019-05-05T01:25:45.538Z,99968.05
2019-05-05T01:28:15.298Z,99971.96
2019-05-05T01:30:46.143Z,99968.54
2019-05-05T01:33:35.348Z,99978.48
2019-05-05T01:36:04.750Z,99973.46
2019-05-05T01:38:35.853Z,99976.81
2019-05-05T01:41:14.625Z,99979.33
2019-05-05T01:43:45.217Z,99980.69
2019-05-05T01:46:17.370Z,99984.45
2019-05-05T01:48:46.591Z,99986.95
2019-05-05T01:51:15.786Z,99983.87
2019-05-05T01:53:45.008Z,99991.19
2019-05-05T01:56:15.382Z,99991.00
2019-05-05T01:58:44.819Z,99996.23
2019-05-05T02:01:15.381Z,99996.25
2019-05-05T02:03:44.680Z,99995.31
2019-05-05T02:06:14.286Z,99991.58
2019-05-05T02:08:45.430Z,99997.72
2019-05-05T02:11:15.613Z,100002.86
2019-05-05T02:13:45.151Z,100000.80
2019-05-05T02:16:15.085Z,100009.05
2019-05-05T02:18:45.039Z,100004.31
2019-05-05T02:21:14.430Z,100005.86
2019-05-05T02:23:45.318Z,100002.62
2019-05-05T02:26:15.308Z,100006.77
2019-05-05T02:28:46.328Z,100003.17
2019-05-05T02:31:29.184Z,100007.03
2019-05-05T02:33:58.414Z,100008.53
2019-05-05T02:36:27.661Z,100013.64
2019-05-05T02:38:56.998Z,100013.23
2019-05-05T02:41:26.274Z,100016.22
2019-05-05T02:43:55.901Z,100021.54
2019-05-05T02:46:35.433Z,100020.91
2019-05-05T02:49:05.440Z,100028.75
2019-05-05T02:51:35.453Z,100035.23
2019-05-05T02:54:04.934Z,100039.89
2019-05-05T02:56:43.644Z,100043.70
2019-05-05T02:59:15.195Z,100044.64
2019-05-05T03:01:49.058Z,100047.16
2019-05-05T03:04:18.271Z,100056.75
2019-05-05T03:06:49.413Z,100062.20
2019-05-05T03:09:18.611Z,100064.55
2019-05-05T03:11:48.400Z,100069.39
2019-05-05T03:14:17.605Z,100070.91
2019-05-05T03:16:46.848Z,100070.61
2019-05-05T03:19:16.048Z,100070.19
2019-05-05T03:21:45.270Z,100077.09
2019-05-05T03:24:14.505Z,100080.39
2019-05-05T03:26:44.457Z,100077.67
2019-05-05T03:29:18.039Z,100082.64
2019-05-05T03:31:47.975Z,100081.53
2019-05-05T03:34:17.466Z,100082.75
2019-05-05T03:36:46.862Z,100092.45
2019-05-05T03:39:17.730Z,100102.01
2019-05-05T03:41:51.378Z,100106.97
2019-05-05T03:44:24.057Z,100097.83
2019-05-05T03:46:54.377Z,100100.69
2019-05-05T03:49:24.361Z,100108.93
2019-05-05T03:51:54.329Z,100105.64
2019-05-05T03:54:23.911Z,100106.80
2019-05-05T03:56:54.884Z,100103.36
2019-05-05T03:59:24.371Z,100118.00
2019-05-05T04:01:57.859Z,100120.96
2019-05-05T04:04:34.260Z,100119.83
2019-05-05T04:07:04.740Z,100118.70
2019-05-05T04:09:34.658Z,100119.39
2019-05-05T04:12:04.555Z,100121.36
2019-05-05T04:14:34.877Z,100126.95
2019-05-05T04:17:14.133Z,100122.17
2019-05-05T04:19:47.436Z,100126.83
2019-05-05T04:22:16.653Z,100125.21
2019-05-05T04:24:45.870Z,100125.91
2019-05-05T04:27:15.072Z,100120.33
2019-05-05T04:29:44.288Z,100121.11
2019-05-05T04:32:14.235Z,100124.06
2019-05-05T04:34:44.050Z,100128.99
2019-05-05T04:37:14.948Z,100132.25
2019-05-05T04:39:44.660Z,100133.73
2019-05-05T04:42:14.335Z,100131.59
2019-05-05T04:44:44.937Z,100135.24
2019-05-05T04:47:15.899Z,100139.99
2019-05-05T04:49:58.849Z,100142.61
2019-05-05T04:52:31.678Z,100148.94
2019-05-05T04:55:00.905Z,100148.45
2019-05-05T04:57:30.126Z,100151.20
2019-05-05T04:59:59.326Z,100149.23
2019-05-05T05:02:36.036Z,100145.55
2019-05-05T05:05:16.923Z,100145.37
2019-05-05T05:07:46.203Z,100143.43
2019-05-05T05:10:15.411Z,100142.23
2019-05-05T05:12:44.627Z,100142.68
2019-05-05T05:15:14.616Z,100139.69
2019-05-05T05:17:48.694Z,100147.88
2019-05-05T05:20:17.932Z,100144.09
2019-05-05T05:22:47.127Z,100143.57
2019-05-05T05:25:16.349Z,100141.88
2019-05-05T05:27:45.574Z,100143.94
2019-05-05T05:30:14.769Z,100147.82
2019-05-05T05:32:44.562Z,100146.31
2019-05-05T05:35:14.293Z,100145.59
2019-05-05T05:37:44.816Z,100148.52
2019-05-05T05:40:15.945Z,100152.39
2019-05-05T05:42:45.167Z,100152.52
2019-05-05T05:45:34.329Z,100153.47
2019-05-05T05:48:05.372Z,100155.16
2019-05-05T05:50:36.475Z,100157.45
2019-05-05T05:53:05.689Z,100165.97
2019-05-05T05:55:34.907Z,100160.78
2019-05-05T05:58:04.786Z,100162.17
2019-05-05T06:00:34.515Z,100166.09
2019-05-05T06:03:04.120Z,100167.50
2019-05-05T06:05:34.513Z,100170.72
2019-05-05T06:08:04.737Z,100166.05
2019-05-05T06:10:34.233Z,100177.78
2019-05-05T06:13:04.154Z,100178.38
2019-05-05T06:15:34.408Z,100177.33
2019-05-05T06:18:04.637Z,100176.13
2019-05-05T06:20:34.557Z,100174.73
2019-05-05T06:23:06.285Z,100181.05
2019-05-05T06:25:38.066Z,100180.67
2019-05-05T06:28:06.912Z,100175.52
2019-05-05T06:30:36.132Z,100180.84
2019-05-05T06:33:05.333Z,100182.42
2019-05-05T06:35:34.592Z,100180.70
2019-05-05T06:38:04.707Z,100177.52
2019-05-05T06:40:44.618Z,100175.12
2019-05-05T06:43:15.459Z,100174.56
2019-05-05T06:45:49.331Z,100173.38
2019-05-05T06:48:18.606Z,100176.73
2019-05-05T06:50:47.835Z,100169.09
2019-05-05T06:53:17.050Z,100172.91
2019-05-05T06:55:46.272Z,100169.66
2019-05-05T06:58:15.468Z,100176.63
2019-05-05T07:00:44.790Z,100178.83
2019-05-05T07:03:14.084Z,100176.48
2019-05-05T07:05:43.862Z,100184.41
2019-05-05T07:08:13.784Z,100186.05
2019-05-05T07:10:44.474Z,100180.44
2019-05-05T07:13:14.123Z,100180.23
2019-05-05T07:15:43.898Z,100185.58
2019-05-05T07:18:14.248Z,100185.83
2019-05-05T07:20:44.192Z,100192.37
2019-05-05T07:23:14.475Z,100191.16
2019-05-05T07:25:46.016Z,100194.05
2019-05-05T07:28:14.884Z,100190.73
2019-05-05T07:30:44.356Z,100190.67
2019-05-05T07:33:14.923Z,100192.92
2019-05-05T07:35:56.841Z,100193.82
2019-05-05T07:38:24.433Z,100199.59
2019-05-05T07:40:54.501Z,100195.72
2019-05-05T07:43:24.076Z,100199.74
2019-05-05T07:45:54.053Z,100202.74
2019-05-05T07:48:24.336Z,100202.47
2019-05-05T07:51:01.870Z,100211.35
2019-05-05T07:53:24.585Z,100205.17
2019-05-05T07:55:54.230Z,100198.67
2019-05-05T07:58:24.269Z,100200.92
2019-05-05T08:00:54.162Z,100202.66
2019-05-05T08:03:23.733Z,100202.76
2019-05-05T08:05:54.508Z,100202.31
2019-05-05T08:08:24.445Z,100204.66
2019-05-05T08:10:54.242Z,100196.05
2019-05-05T08:13:24.291Z,100203.19
2019-05-05T08:15:59.785Z,100195.16
2019-05-05T08:18:30.908Z,100193.44
2019-05-05T08:21:04.983Z,100187.26
2019-05-05T08:23:35.941Z,100188.00
2019-05-05T08:26:06.882Z,100186.29
2019-05-05T08:28:54.060Z,100196.74
2019-05-05T08:31:27.773Z,100200.84
2019-05-05T08:33:57.003Z,100201.22
2019-05-05T08:36:26.305Z,100209.34
2019-05-05T08:38:55.511Z,100204.42
2019-05-05T08:41:24.723Z,100212.00
2019-05-05T08:43:54.338Z,100211.52
2019-05-05T08:46:24.758Z,100208.22
2019-05-05T08:48:54.131Z,100209.56
2019-05-05T08:51:24.679Z,100215.67
2019-05-05T08:53:54.556Z,100218.70
2019-05-05T08:56:24.804Z,100216.90
2019-05-05T08:58:54.897Z,100225.34
2019-05-05T09:01:24.141Z,100230.00
2019-05-05T09:03:53.625Z,100230.08
2019-05-05T09:06:24.156Z,100233.89
2019-05-05T09:08:54.803Z,100234.48
2019-05-05T09:11:24.174Z,100232.58
2019-05-05T09:13:53.575Z,100230.39
2019-05-05T09:16:24.162Z,100227.52
2019-05-05T09:19:04.513Z,100232.97
2019-05-05T09:21:34.537Z,100231.94
2019-05-05T09:24:21.852Z,100231.20
2019-05-05T09:27:07.443Z,100230.71
2019-05-05T09:29:40.940Z,100231.70
2019-05-05T09:32:10.161Z,100234.77
2019-05-05T09:34:39.389Z,100231.08
2019-05-05T09:37:08.630Z,100228.67
2019-05-05T09:39:37.826Z,100230.51
2019-05-05T09:42:07.066Z,100231.23
2019-05-05T09:44:36.337Z,100230.70
2019-05-05T09:47:05.807Z,100221.20
2019-05-05T09:49:35.045Z,100228.79
2019-05-05T09:52:04.968Z,100226.03
2019-05-05T09:54:34.695Z,100234.02
2019-05-05T09:57:04.679Z,100234.42
2019-05-05T09:59:34.782Z,100234.61
2019-05-05T10:02:04.576Z,100232.23
2019-05-05T10:04:35.543Z,100233.31
2019-05-05T10:07:04.828Z,100235.85
2019-05-05T10:09:34.612Z,100229.64
2019-05-05T10:12:04.713Z,100237.44
2019-05-05T10:14:34.359Z,100238.53
2019-05-05T10:17:04.926Z,100245.53
2019-05-05T10:19:34.381Z,100241.72
2019-05-05T10:22:04.184Z,100239.50
2019-05-05T10:24:35.172Z,100237.81
2019-05-05T10:27:04.958Z,100244.13
2019-05-05T10:29:34.286Z,100239.80
2019-05-05T10:32:04.629Z,100242.05
2019-05-05T10:34:36.174Z,100242.70
2019-05-05T10:37:05.396Z,100237.94
2019-05-05T10:39:36.290Z,100239.80
2019-05-05T10:42:05.503Z,100235.42
2019-05-05T10:44:34.729Z,100234.91
2019-05-05T10:47:04.731Z,100235.09
2019-05-05T10:49:34.124Z,100229.36
2019-05-05T10:52:03.815Z,100226.35
2019-05-05T10:54:43.341Z,100222.27
2019-05-05T10:57:04.241Z,100222.98
2019-05-05T10:59:34.359Z,100222.80
2019-05-05T11:02:04.864Z,100225.86
2019-05-05T11:04:34.445Z,100221.42
2019-05-05T11:07:04.360Z,100216.94
2019-05-05T11:09:34.374Z,100221.33
2019-05-05T11:12:03.582Z,100216.23
2019-05-05T11:14:33.723Z,100208.12
2019-05-05T11:17:04.181Z,100219.27
2019-05-05T11:19:33.767Z,100221.91
2019-05-05T11:22:03.025Z,100223.70
2019-05-05T11:24:34.461Z,100227.19
2019-05-05T11:27:04.487Z,100223.78
2019-05-05T11:29:35.545Z,100225.10
2019-05-05T11:32:06.416Z,100219.99
2019-05-05T11:34:35.634Z,100217.71
2019-05-05T11:37:06.676Z,100220.81
2019-05-05T11:39:35.885Z,100226.36
2019-05-05T11:42:05.104Z,100226.39
2019-05-05T11:44:35.239Z,100230.08
2019-05-05T11:47:04.450Z,100231.27
2019-05-05T11:49:33.784Z,100232.61
2019-05-05T11:52:04.636Z,100226.89
2019-05-05T11:54:33.962Z,100229.80
2019-05-05T11:57:04.382Z,100228.67
2019-05-05T11:59:33.758Z,100228.69
2019-05-05T12:02:03.800Z,100224.46
2019-05-05T12:04:33.243Z,100220.27
2019-05-05T12:07:04.070Z,100222.30
2019-05-05T12:09:35.196Z,100221.72
2019-05-05T12:12:04.560Z,100222.08
2019-05-05T12:14:33.933Z,100224.53
2019-05-05T12:17:04.597Z,100228.72
2019-05-05T12:19:33.914Z,100226.76
2019-05-05T12:22:03.171Z,100229.02
2019-05-05T12:24:34.063Z,100227.11
2019-05-05T12:27:04.916Z,100229.33
2019-05-05T12:29:35.429Z,100226.25
2019-05-05T12:32:04.672Z,100223.53
2019-05-05T12:34:34.128Z,100226.39
2019-05-05T12:37:05.180Z,100218.83
2019-05-05T12:39:34.312Z,100229.45
2019-05-05T12:42:04.892Z,100223.44
2019-05-05T12:44:35.967Z,100223.84
2019-05-05T12:47:18.423Z,100230.34
2019-05-05T12:49:47.648Z,100223.37
2019-05-05T12:52:16.876Z,100221.55
2019-05-05T12:54:46.162Z,100220.13
2019-05-05T12:57:15.371Z,100221.52
2019-05-05T12:59:44.622Z,100220.10
2019-05-05T13:02:14.386Z,100223.97
2019-05-05T13:04:43.648Z,100226.66
2019-05-05T13:07:13.595Z,100226.19
2019-05-05T13:09:44.057Z,100222.36
2019-05-05T13:12:15.041Z,100219.03
2019-05-05T13:14:44.400Z,100220.52
2019-05-05T13:17:14.169Z,100218.56
2019-05-05T13:19:48.074Z,100226.34
2019-05-05T13:22:18.926Z,100223.20
2019-05-05T13:24:49.879Z,100218.64
2019-05-05T13:27:20.760Z,100217.70
2019-05-05T13:29:50.053Z,100220.36
2019-05-05T13:32:19.271Z,100222.89
2019-05-05T13:34:48.505Z,100225.69
2019-05-05T13:37:17.716Z,100226.19
2019-05-05T13:39:47.021Z,100230.13
2019-05-05T13:42:16.258Z,100231.27
2019-05-05T13:44:49.583Z,100227.14
2019-05-05T13:47:18.901Z,100229.30
2019-05-05T13:49:48.722Z,100234.08
2019-05-05T13:52:18.014Z,100234.13
2019-05-05T13:54:47.244Z,100231.17
2019-05-05T13:57:16.469Z,100234.18
2019-05-05T13:59:45.780Z,100231.36
2019-05-05T14:02:15.014Z,100233.87
2019-05-05T14:04:44.252Z,100230.30
2019-05-05T14:07:13.453Z,100229.91
2019-05-05T14:09:44.197Z,100228.44
2019-05-05T14:12:14.619Z,100233.22
2019-05-05T14:14:44.118Z,100227.44
2019-05-05T14:17:14.765Z,100222.85
2019-05-05T14:19:44.608Z,100222.99
2019-05-05T14:22:13.946Z,100221.78
2019-05-05T14:24:47.827Z,100219.38
2019-05-05T14:27:17.153Z,100218.73
2019-05-05T14:29:50.733Z,100214.38
2019-05-05T14:32:21.589Z,100211.17
2019-05-05T14:34:58.036Z,100211.45
2019-05-05T14:37:33.878Z,100210.78
2019-05-05T14:40:04.747Z,100202.16
2019-05-05T14:42:34.295Z,100198.41
2019-05-05T14:45:04.906Z,100199.41
2019-05-05T14:47:34.147Z,100197.80
2019-05-05T14:50:04.703Z,100200.31
2019-05-05T14:52:34.155Z,100205.68
2019-05-05T14:55:04.347Z,100204.61
2019-05-05T14:57:33.710Z,100206.58
2019-05-05T15:00:04.826Z,100209.23
2019-05-05T15:02:34.769Z,100209.40
2019-05-05T15:05:06.112Z,100212.22
2019-05-05T15:07:37.009Z,100208.73
2019-05-05T15:10:24.742Z,100205.27
2019-05-05T15:12:55.644Z,100199.81
2019-05-05T15:15:24.945Z,100195.53
2019-05-05T15:17:54.211Z,100195.95
2019-05-05T15:20:24.511Z,100192.59
2019-05-05T15:22:54.322Z,100193.37
2019-05-05T15:25:23.928Z,100192.74
2019-05-05T15:27:54.199Z,100190.58
2019-05-05T15:30:26.891Z,100194.21
2019-05-05T15:32:54.542Z,100196.84
2019-05-05T15:35:23.767Z,100198.55
2019-05-05T15:37:54.187Z,100197.36
2019-05-05T15:40:24.760Z,100197.51
2019-05-05T15:42:54.520Z,100196.46
2019-05-05T15:45:23.946Z,100199.38
2019-05-05T15:47:54.049Z,100200.23
2019-05-05T15:50:23.459Z,100205.66
2019-05-05T15:52:54.354Z,100206.85
2019-05-05T15:55:24.519Z,100202.67
2019-05-05T15:57:53.983Z,100201.62
2019-05-05T16:00:23.186Z,100201.05
2019-05-05T16:02:54.719Z,100201.61
2019-05-05T16:05:24.247Z,100201.72
2019-05-05T16:07:54.252Z,100203.85
2019-05-05T16:10:25.206Z,100199.48
2019-05-05T16:12:54.591Z,100197.55
2019-05-05T16:15:28.449Z,100203.16
2019-05-05T16:18:15.675Z,100202.22
2019-05-05T16:20:49.008Z,100199.89
2019-05-05T16:23:19.893Z,100199.61
2019-05-05T16:25:49.151Z,100201.11
2019-05-05T16:28:18.351Z,100203.41
2019-05-05T16:30:47.651Z,100203.85
2019-05-05T16:33:16.865Z,100207.45
2019-05-05T16:35:46.115Z,100201.34
2019-05-05T16:38:15.320Z,100201.67
2019-05-05T16:40:45.602Z,100207.23
2019-05-05T16:43:16.666Z,100200.89
2019-05-05T16:45:45.754Z,100203.55
2019-05-05T16:48:14.988Z,100197.24
2019-05-05T16:50:44.761Z,100202.95
2019-05-05T16:53:31.787Z,100204.47
2019-05-05T16:56:01.491Z,100206.23
2019-05-05T16:58:30.713Z,100209.92
2019-05-05T17:00:59.964Z,100206.55
2019-05-05T17:03:29.203Z,100206.36
2019-05-05T17:05:58.403Z,100206.74
2019-05-05T17:08:27.639Z,100204.03
2019-05-05T17:10:56.854Z,100209.81
2019-05-05T17:13:36.713Z,100203.98
2019-05-05T17:16:07.577Z,100201.41
2019-05-05T17:18:38.450Z,100203.26
2019-05-05T17:21:13.464Z,100206.86
2019-05-05T17:23:43.444Z,100210.45
2019-05-05T17:26:14.290Z,100213.48
2019-05-05T17:28:44.354Z,100218.23
2019-05-05T17:31:13.843Z,100219.89
2019-05-05T17:33:44.197Z,100221.72
2019-05-05T17:36:14.011Z,100221.44
2019-05-05T17:38:43.717Z,100220.61
2019-05-05T17:41:26.857Z,100216.81
2019-05-05T17:43:57.895Z,100221.81
2019-05-05T17:46:28.952Z,100218.60
2019-05-05T17:48:59.953Z,100219.45
2019-05-05T17:51:31.375Z,100223.61
2019-05-05T17:54:02.436Z,100232.40
2019-05-05T17:56:33.473Z,100234.28
2019-05-05T17:59:03.450Z,100229.41
2019-05-05T18:01:33.589Z,100232.61
2019-05-05T18:04:04.143Z,100237.64
2019-05-05T18:06:44.166Z,100242.51
2019-05-05T18:09:15.020Z,100241.00
2019-05-05T18:11:58.201Z,100242.36
2019-05-05T18:14:47.347Z,100251.33
2019-05-05T18:17:16.656Z,100249.98
2019-05-05T18:19:45.898Z,100251.05
2019-05-05T18:22:15.105Z,100254.11
2019-05-05T18:24:44.692Z,100257.46
2019-05-05T18:27:14.193Z,100259.39
2019-05-05T18:29:43.755Z,100256.98
2019-05-05T18:32:13.843Z,100260.20
2019-05-05T18:34:43.326Z,100257.84
2019-05-05T18:37:14.398Z,100258.69
2019-05-05T18:39:43.901Z,100259.86
2019-05-05T18:42:14.837Z,100261.28
2019-05-05T18:44:45.719Z,100269.84
2019-05-05T18:47:18.407Z,100271.67
2019-05-05T18:49:47.158Z,100281.77
2019-05-05T18:52:16.375Z,100289.64
2019-05-05T18:54:45.609Z,100291.23
2019-05-05T18:57:14.818Z,100294.95
2019-05-05T18:59:44.762Z,100299.72
2019-05-05T19:02:19.014Z,100302.02
2019-05-05T19:05:02.079Z,100302.66
2019-05-05T19:07:35.414Z,100305.76
2019-05-05T19:10:07.264Z,100310.20
2019-05-05T19:12:36.528Z,100310.66
2019-05-05T19:15:06.975Z,100307.99
2019-05-05T19:17:36.187Z,100310.52
2019-05-05T19:20:08.841Z,100307.98
2019-05-05T19:22:38.096Z,100307.18
2019-05-05T19:25:16.121Z,100310.59
2019-05-05T19:27:46.487Z,100316.72
2019-05-05T19:30:17.429Z,100321.00
2019-05-05T19:32:46.638Z,100321.59
2019-05-05T19:35:15.865Z,100317.70
2019-05-05T19:37:45.079Z,100320.78
2019-05-05T19:40:14.324Z,100319.52
2019-05-05T19:42:45.964Z,100319.25
2019-05-05T19:45:14.467Z,100322.36
2019-05-05T19:47:44.069Z,100323.27
2019-05-05T19:50:17.253Z,100326.03
2019-05-05T19:52:46.639Z,100328.44
2019-05-05T19:55:15.968Z,100325.10
2019-05-05T19:57:45.206Z,100325.91
2019-05-05T20:00:14.707Z,100326.80
2019-05-05T20:02:44.023Z,100328.56
2019-05-05T20:05:14.406Z,100330.64
2019-05-05T20:07:43.948Z,100329.05
2019-05-05T20:10:14.657Z,100327.17
2019-05-05T20:12:46.805Z,100323.15
2019-05-05T20:15:16.706Z,100321.94
2019-05-05T20:17:45.923Z,100324.17
2019-05-05T20:20:15.170Z,100324.40
2019-05-05T20:22:44.586Z,100324.63
2019-05-05T20:25:14.120Z,100322.05
2019-05-05T20:27:43.486Z,100325.41
2019-05-05T20:30:14.242Z,100326.28
2019-05-05T20:32:45.214Z,100330.73
2019-05-05T20:35:33.849Z,100329.44
2019-05-05T20:38:10.846Z,100331.52
2019-05-05T20:40:41.686Z,100335.45
2019-05-05T20:43:10.911Z,100331.52
2019-05-05T20:45:40.127Z,100330.40
2019-05-05T20:48:09.347Z,100332.98
2019-05-05T20:50:38.581Z,100332.31
2019-05-05T20:53:07.811Z,100335.84
2019-05-05T20:55:37.013Z,100331.13
2019-05-05T20:58:06.330Z,100326.67
2019-05-05T21:00:35.531Z,100326.37
2019-05-05T21:03:04.997Z,100323.95
2019-05-05T21:05:34.549Z,100323.12
2019-05-05T21:08:04.794Z,100329.39
2019-05-05T21:10:34.864Z,100328.67
2019-05-05T21:13:05.337Z,100328.36
2019-05-05T21:15:34.609Z,100325.76
2019-05-05T21:18:04.930Z,100326.74
2019-05-05T21:20:34.793Z,100330.38
2019-05-05T21:23:08.668Z,100323.52
2019-05-05T21:25:44.277Z,100320.41
2019-05-05T21:28:14.620Z,100321.81
2019-05-05T21:30:44.043Z,100323.92
2019-05-05T21:33:13.337Z,100321.18
2019-05-05T21:35:44.118Z,100314.05
2019-05-05T21:38:14.251Z,100318.41
2019-05-05T21:40:44.099Z,100320.24
2019-05-05T21:43:15.392Z,100314.64
2019-05-05T21:45:44.583Z,100317.16
2019-05-05T21:48:14.126Z,100318.83
2019-05-05T21:51:01.561Z,100318.88
2019-05-05T21:53:34.187Z,100322.20
2019-05-05T21:56:05.172Z,100323.81
2019-05-05T21:58:43.808Z,100320.85
2019-05-05T22:01:16.828Z,100318.42
2019-05-05T22:03:46.082Z,100319.91
2019-05-05T22:06:15.396Z,100316.03
2019-05-05T22:08:44.624Z,100315.00
2019-05-05T22:11:15.474Z,100313.02
2019-05-05T22:13:44.702Z,100309.58
2019-05-05T22:16:15.558Z,100311.56
2019-05-05T22:18:46.711Z,100309.50
2019-05-05T22:21:17.509Z,100307.67
2019-05-05T22:23:48.374Z,100307.53
2019-05-05T22:26:17.616Z,100310.86
2019-05-05T22:28:46.851Z,100310.90
2019-05-05T22:31:17.690Z,100311.94
2019-05-05T22:33:46.921Z,100309.99
2019-05-05T22:36:18.878Z,100309.22
2019-05-05T22:38:48.132Z,100307.95
2019-05-05T22:41:20.265Z,100312.75
2019-05-05T22:43:49.476Z,100317.57
2019-05-05T22:46:20.341Z,100310.38
2019-05-05T22:48:49.618Z,100314.08
2019-05-05T22:51:18.914Z,100318.75
2019-05-05T22:53:48.121Z,100321.23
2019-05-05T22:56:18.993Z,100321.11
2019-05-05T22:58:48.215Z,100317.02
2019-05-05T23:01:17.618Z,100317.59
2019-05-05T23:03:55.254Z,100315.81
2019-05-05T23:06:26.370Z,100316.94
2019-05-05T23:08:55.579Z,100316.63
2019-05-05T23:11:24.817Z,100313.39
2019-05-05T23:13:55.679Z,100315.72
2019-05-05T23:16:34.048Z,100310.92
2019-05-05T23:19:04.685Z,100308.13
2019-05-05T23:21:38.515Z,100307.02
2019-05-05T23:24:14.842Z,100307.23
2019-05-05T23:26:45.727Z,100308.63
2019-05-05T23:29:14.932Z,100310.43
2019-05-05T23:31:44.563Z,100313.33
2019-05-05T23:34:14.722Z,100314.31
2019-05-05T23:36:44.407Z,100309.77
2019-05-05T23:39:13.723Z,100316.36
2019-05-05T23:41:42.966Z,100314.75
2019-05-05T23:44:14.220Z,100312.48
2019-05-05T23:46:43.138Z,100317.63
2019-05-05T23:49:13.754Z,100315.65
2019-05-05T23:51:44.096Z,100321.33
2019-05-05T23:54:13.676Z,100320.16
2019-05-05T23:56:44.110Z,100320.03
2019-05-05T23:59:13.716Z,100318.55
